Time;durP1;ratioP1;P1;durP2;ratioP2;P2;SDS_P1;SDS_P2;PMS_P1;PMS_P2;Temp;Humidity;BMP_temperature;BMP_pressure;BME280_temperature;BME280_humidity;BME280_pressure;Samples;Min_cycle;Max_cycle;Signal;HPM_P1;HPM_P2
2022/03/16 00:01:32;;;;;;;25.35;17.48;;;;;;;;;;5055061;28;20103;-65
2022/03/16 00:03:59;;;;;;;22.75;15.18;;;;;;;;;;5054824;28;20092;-66
2022/03/16 00:06:25;;;;;;;24.90;16.92;;;;;;;;;;5054966;28;20088;-65
2022/03/16 00:08:52;;;;;;;19.08;13.57;;;;;;;;;;5054580;28;20103;-66
2022/03/16 00:11:18;;;;;;;22.95;15.88;;;;;;;;;;5054646;28;20103;-65
2022/03/16 00:13:45;;;;;;;25.92;16.92;;;;;;;;;;5040331;28;20073;-65
2022/03/16 00:16:11;;;;;;;26.90;17.67;;;;;;;;;;5054779;28;20045;-65
2022/03/16 00:18:38;;;;;;;26.67;17.45;;;;;;;;;;5054683;28;20060;-64
2022/03/16 00:21:04;;;;;;;26.77;17.70;;;;;;;;;;5054856;28;20049;-64
2022/03/16 00:23:32;;;;;;;31.30;19.40;;;;;;;;;;5054515;28;20053;-64
2022/03/16 00:25:58;;;;;;;30.05;18.90;;;;;;;;;;5054453;28;20075;-64
2022/03/16 00:28:25;;;;;;;30.40;18.33;;;;;;;;;;5054547;28;20049;-64
2022/03/16 00:30:51;;;;;;;27.63;18.42;;;;;;;;;;5054367;28;20386;-64
2022/03/16 00:33:18;;;;;;;28.10;17.85;;;;;;;;;;5054247;28;20579;-62
2022/03/16 00:35:45;;;;;;;31.75;19.70;;;;;;;;;;5054622;28;20049;-62
2022/03/16 00:38:13;;;;;;;28.30;19.40;;;;;;;;;;5054135;28;20053;-61
2022/03/16 00:40:41;;;;;;;26.48;17.95;;;;;;;;;;5054112;28;20084;-62
2022/03/16 00:43:07;;;;;;;25.25;17.20;;;;;;;;;;5054354;28;20053;-61
2022/03/16 00:45:34;;;;;;;25.45;18.15;;;;;;;;;;5054263;28;20338;-62
2022/03/16 00:48:00;;;;;;;26.48;17.95;;;;;;;;;;5053727;28;20457;-61
2022/03/16 00:50:27;;;;;;;28.73;19.55;;;;;;;;;;5053939;28;20049;-64
2022/03/16 00:52:53;;;;;;;29.90;19.45;;;;;;;;;;5053966;28;20041;-64
2022/03/16 00:55:20;;;;;;;30.27;20.77;;;;;;;;;;5054175;28;20845;-64
2022/03/16 00:57:46;;;;;;;32.90;20.65;;;;;;;;;;5053861;28;20079;-64
2022/03/16 01:00:13;;;;;;;27.88;20.15;;;;;;;;;;5053908;28;20049;-64
2022/03/16 01:02:39;;;;;;;32.20;20.90;;;;;;;;;;5053731;28;20044;-64
2022/03/16 01:05:06;;;;;;;29.65;19.15;;;;;;;;;;5053726;28;20552;-64
2022/03/16 01:07:33;;;;;;;30.80;20.15;;;;;;;;;;5053418;28;20061;-64
2022/03/16 01:09:59;;;;;;;31.05;20.23;;;;;;;;;;5054204;28;20045;-64
2022/03/16 01:12:26;;;;;;;30.85;20.85;;;;;;;;;;5053874;28;20037;-64
2022/03/16 01:14:52;;;;;;;32.25;21.17;;;;;;;;;;5053866;28;20044;-64
2022/03/16 01:17:19;;;;;;;31.95;21.23;;;;;;;;;;5053402;28;20512;-64
2022/03/16 01:19:45;;;;;;;30.90;20.92;;;;;;;;;;5053521;28;20419;-64
2022/03/16 01:22:12;;;;;;;31.63;20.98;;;;;;;;;;5052180;28;20040;-64
2022/03/16 01:24:38;;;;;;;31.48;20.13;;;;;;;;;;5053386;28;20103;-65
2022/03/16 01:27:05;;;;;;;30.98;21.60;;;;;;;;;;5053574;28;20041;-64
2022/03/16 01:29:32;;;;;;;31.67;21.23;;;;;;;;;;5053085;28;20451;-64
2022/03/16 01:31:58;;;;;;;31.40;20.75;;;;;;;;;;5053206;28;20049;-64
2022/03/16 01:34:25;;;;;;;29.90;20.13;;;;;;;;;;5053236;28;20127;-64
2022/03/16 01:36:52;;;;;;;31.70;21.23;;;;;;;;;;5053126;28;20072;-64
2022/03/16 01:39:18;;;;;;;34.83;22.00;;;;;;;;;;5053059;28;20811;-64
2022/03/16 01:41:45;;;;;;;30.25;20.63;;;;;;;;;;5053185;28;20092;-64
2022/03/16 01:44:11;;;;;;;31.38;20.30;;;;;;;;;;5053177;28;20045;-64
2022/03/16 01:46:38;;;;;;;31.38;22.00;;;;;;;;;;5052877;28;20057;-64
2022/03/16 01:49:04;;;;;;;31.60;20.98;;;;;;;;;;5052858;28;20040;-64
2022/03/16 01:51:31;;;;;;;32.65;20.90;;;;;;;;;;5052771;28;20122;-64
2022/03/16 01:53:58;;;;;;;30.25;21.60;;;;;;;;;;5052986;28;20044;-64
2022/03/16 01:56:24;;;;;;;32.35;21.58;;;;;;;;;;5052759;28;20428;-64
2022/03/16 01:58:50;;;;;;;32.90;21.48;;;;;;;;;;5051611;28;20049;-64
2022/03/16 02:01:17;;;;;;;29.50;21.00;;;;;;;;;;5052648;28;20504;-64
2022/03/16 02:03:44;;;;;;;30.92;20.42;;;;;;;;;;5052562;28;20075;-64
2022/03/16 02:06:10;;;;;;;32.47;20.92;;;;;;;;;;5053064;28;20468;-64
2022/03/16 02:08:37;;;;;;;30.10;20.42;;;;;;;;;;5052315;28;20471;-65
2022/03/16 02:11:03;;;;;;;29.85;20.75;;;;;;;;;;5052492;28;20106;-64
2022/03/16 02:13:32;;;;;;;30.58;20.60;;;;;;;;;;5052396;28;20053;-64
2022/03/16 02:15:58;;;;;;;33.35;21.05;;;;;;;;;;5052507;28;20052;-64
2022/03/16 02:18:24;;;;;;;30.10;19.92;;;;;;;;;;5052548;28;20055;-64
2022/03/16 02:20:51;;;;;;;31.85;20.60;;;;;;;;;;5052304;28;20095;-64
2022/03/16 02:23:17;;;;;;;31.75;20.48;;;;;;;;;;5052400;28;20126;-64
2022/03/16 02:25:49;;;;;;;31.27;19.67;;;;;;;;;;5052506;28;20108;-64
2022/03/16 02:28:15;;;;;;;30.52;20.67;;;;;;;;;;5052018;28;20099;-64
2022/03/16 02:30:42;;;;;;;28.80;19.52;;;;;;;;;;5052222;28;20142;-65
2022/03/16 02:33:09;;;;;;;30.10;19.95;;;;;;;;;;5051982;28;20095;-64
2022/03/16 02:35:35;;;;;;;30.65;19.30;;;;;;;;;;5052006;28;20087;-64
2022/03/16 02:38:03;;;;;;;27.42;18.90;;;;;;;;;;5052051;28;20049;-64
2022/03/16 02:40:29;;;;;;;28.70;20.58;;;;;;;;;;5052154;28;20443;-65
2022/03/16 02:42:56;;;;;;;35.05;21.58;;;;;;;;;;5052307;28;20041;-64
2022/03/16 02:45:22;;;;;;;32.88;21.40;;;;;;;;;;5052074;28;20048;-64
2022/03/16 02:47:48;;;;;;;34.50;22.30;;;;;;;;;;5051711;28;20056;-64
2022/03/16 02:50:18;;;;;;;34.67;22.83;;;;;;;;;;5052071;28;20401;-64
2022/03/16 02:52:45;;;;;;;33.33;20.67;;;;;;;;;;5051946;28;20045;-64
2022/03/16 02:55:32;;;;;;;32.75;22.02;;;;;;;;;;5051966;28;20124;-64
2022/03/16 02:57:59;;;;;;;38.67;22.55;;;;;;;;;;5051957;28;20049;-64
2022/03/16 03:00:26;;;;;;;29.50;21.35;;;;;;;;;;5051573;28;20053;-64
2022/03/16 03:02:54;;;;;;;31.67;22.27;;;;;;;;;;5051985;28;20053;-64
2022/03/16 03:05:21;;;;;;;33.33;22.08;;;;;;;;;;5051678;28;20136;-64
2022/03/16 03:07:47;;;;;;;30.08;20.08;;;;;;;;;;5051436;28;20125;-64
2022/03/16 03:10:14;;;;;;;31.85;21.58;;;;;;;;;;5051471;28;20049;-64
2022/03/16 03:12:40;;;;;;;37.00;23.10;;;;;;;;;;5051439;28;20462;-64
2022/03/16 03:15:11;;;;;;;36.08;22.45;;;;;;;;;;5051538;28;20405;-64
2022/03/16 03:17:37;;;;;;;34.40;21.60;;;;;;;;;;5051399;28;20045;-64
2022/03/16 03:20:04;;;;;;;37.47;22.90;;;;;;;;;;5051853;28;20094;-64
2022/03/16 03:22:31;;;;;;;36.15;22.45;;;;;;;;;;5051459;28;20558;-64
2022/03/16 03:24:57;;;;;;;35.03;22.42;;;;;;;;;;5046534;28;20099;-64
2022/03/16 03:27:24;;;;;;;33.80;22.85;;;;;;;;;;5042626;28;20048;-64
2022/03/16 03:29:51;;;;;;;39.08;24.73;;;;;;;;;;5051564;28;20044;-64
2022/03/16 03:32:18;;;;;;;38.00;25.20;;;;;;;;;;5051736;28;20071;-64
2022/03/16 03:34:47;;;;;;;37.05;24.27;;;;;;;;;;5051583;28;20041;-64
2022/03/16 03:37:14;;;;;;;38.95;25.10;;;;;;;;;;5051347;28;20045;-64
2022/03/16 03:39:41;;;;;;;37.47;24.70;;;;;;;;;;5051232;28;20103;-64
2022/03/16 03:42:08;;;;;;;41.08;25.20;;;;;;;;;;5051417;28;20052;-64
2022/03/16 03:44:38;;;;;;;41.83;26.13;;;;;;;;;;5051444;28;20049;-64
2022/03/16 03:47:05;;;;;;;39.42;24.58;;;;;;;;;;5051457;28;20068;-64
2022/03/16 03:49:35;;;;;;;40.22;24.70;;;;;;;;;;5051249;28;20053;-64
2022/03/16 03:52:02;;;;;;;38.90;24.73;;;;;;;;;;5051151;28;20045;-64
2022/03/16 03:54:28;;;;;;;40.60;24.60;;;;;;;;;;5051363;28;20075;-63
2022/03/16 03:56:55;;;;;;;40.20;24.55;;;;;;;;;;5051402;28;20048;-64
2022/03/16 03:59:23;;;;;;;37.97;23.60;;;;;;;;;;5051091;28;20049;-64
2022/03/16 04:01:49;;;;;;;30.83;20.30;;;;;;;;;;5051293;28;20056;-64
2022/03/16 04:04:16;;;;;;;30.23;19.58;;;;;;;;;;5051214;28;20110;-64
2022/03/16 04:06:43;;;;;;;35.55;21.77;;;;;;;;;;5050932;28;20049;-64
2022/03/16 04:09:09;;;;;;;36.10;24.40;;;;;;;;;;5050772;28;20053;-64
2022/03/16 04:11:36;;;;;;;38.97;24.73;;;;;;;;;;5050966;28;20045;-64
2022/03/16 04:14:03;;;;;;;39.35;24.30;;;;;;;;;;5050971;28;20049;-64
2022/03/16 04:16:29;;;;;;;36.30;23.60;;;;;;;;;;5051154;28;20053;-64
2022/03/16 04:18:56;;;;;;;34.63;23.45;;;;;;;;;;5044202;28;20060;-65
2022/03/16 04:21:22;;;;;;;37.42;24.38;;;;;;;;;;5051696;28;20044;-65
2022/03/16 04:23:52;;;;;;;39.67;26.52;;;;;;;;;;5054735;28;20118;-64
2022/03/16 04:26:18;;;;;;;47.08;29.48;;;;;;;;;;5054333;28;20087;-64
2022/03/16 04:28:45;;;;;;;53.85;30.35;;;;;;;;;;5054571;28;20049;-64
2022/03/16 04:31:12;;;;;;;54.30;30.15;;;;;;;;;;5054523;28;20405;-64
2022/03/16 04:33:39;;;;;;;54.43;31.47;;;;;;;;;;5054621;28;20068;-64
2022/03/16 04:36:08;;;;;;;62.00;31.98;;;;;;;;;;5054212;28;20436;-64
2022/03/16 04:38:34;;;;;;;59.72;33.22;;;;;;;;;;5054354;28;20053;-64
2022/03/16 04:41:02;;;;;;;63.08;32.70;;;;;;;;;;5054432;28;20400;-64
2022/03/16 04:43:28;;;;;;;66.93;33.10;;;;;;;;;;5054446;28;20049;-64
2022/03/16 04:45:55;;;;;;;66.90;33.75;;;;;;;;;;5054148;28;20045;-64
2022/03/16 04:48:21;;;;;;;72.55;34.35;;;;;;;;;;5053950;28;20412;-64
2022/03/16 04:50:48;;;;;;;78.15;35.83;;;;;;;;;;5053893;28;20053;-65
2022/03/16 04:53:14;;;;;;;69.95;35.60;;;;;;;;;;5053803;28;20095;-64
2022/03/16 04:55:41;;;;;;;71.78;35.53;;;;;;;;;;5053894;28;20053;-65
2022/03/16 04:58:07;;;;;;;69.80;35.85;;;;;;;;;;5054155;28;20045;-64
2022/03/16 05:00:35;;;;;;;70.57;36.72;;;;;;;;;;5054159;28;20110;-64
2022/03/16 05:03:02;;;;;;;68.03;34.85;;;;;;;;;;5053745;28;20045;-64
2022/03/16 05:05:29;;;;;;;69.18;36.63;;;;;;;;;;5054048;28;20091;-64
2022/03/16 05:07:56;;;;;;;60.33;33.08;;;;;;;;;;5053491;28;20056;-65
2022/03/16 05:10:23;;;;;;;61.15;32.90;;;;;;;;;;5053893;28;20114;-64
2022/03/16 05:12:49;;;;;;;69.22;34.08;;;;;;;;;;5054625;28;20041;-64
2022/03/16 05:15:17;;;;;;;64.32;33.60;;;;;;;;;;5053687;28;20378;-64
2022/03/16 05:17:43;;;;;;;70.28;36.40;;;;;;;;;;5054050;28;20045;-64
2022/03/16 05:20:11;;;;;;;82.00;38.15;;;;;;;;;;5053418;28;20140;-64
2022/03/16 05:22:41;;;;;;;74.70;38.00;;;;;;;;;;5053454;28;20049;-64
2022/03/16 05:25:09;;;;;;;73.78;37.72;;;;;;;;;;5053708;28;20049;-64
2022/03/16 05:27:36;;;;;;;84.35;38.92;;;;;;;;;;5053411;28;20064;-64
2022/03/16 05:30:02;;;;;;;75.10;36.78;;;;;;;;;;5053426;28;20044;-64
2022/03/16 05:32:30;;;;;;;74.03;36.70;;;;;;;;;;5053321;28;20142;-64
2022/03/16 05:34:57;;;;;;;72.97;36.20;;;;;;;;;;5053501;28;20286;-62
2022/03/16 05:37:23;;;;;;;71.43;35.72;;;;;;;;;;5053376;28;20114;-62
2022/03/16 05:39:50;;;;;;;79.25;38.38;;;;;;;;;;5053457;28;20439;-62
2022/03/16 05:42:16;;;;;;;80.35;38.30;;;;;;;;;;5052911;28;20094;-62
2022/03/16 05:44:42;;;;;;;82.80;39.15;;;;;;;;;;5053276;28;20107;-61
2022/03/16 05:47:09;;;;;;;84.13;39.78;;;;;;;;;;5052857;28;20075;-61
2022/03/16 05:49:35;;;;;;;86.75;40.63;;;;;;;;;;5053044;28;20122;-62
2022/03/16 05:52:02;;;;;;;81.03;40.33;;;;;;;;;;5052931;28;20045;-62
2022/03/16 05:54:29;;;;;;;96.10;39.28;;;;;;;;;;5053313;28;20056;-62
2022/03/16 05:56:55;;;;;;;88.50;39.10;;;;;;;;;;5052781;28;20538;-62
2022/03/16 05:59:22;;;;;;;82.95;39.65;;;;;;;;;;5052602;28;20045;-62
2022/03/16 06:01:48;;;;;;;89.70;38.70;;;;;;;;;;5052976;28;20056;-62
2022/03/16 06:04:15;;;;;;;91.75;38.90;;;;;;;;;;5052542;28;20084;-62
2022/03/16 06:06:41;;;;;;;95.78;41.00;;;;;;;;;;5052714;28;20146;-62
2022/03/16 06:09:08;;;;;;;80.07;37.80;;;;;;;;;;5052287;28;20083;-62
2022/03/16 06:11:34;;;;;;;76.35;37.53;;;;;;;;;;5052491;28;20049;-62
2022/03/16 06:14:01;;;;;;;80.63;36.38;;;;;;;;;;5052436;28;20523;-62
2022/03/16 06:16:27;;;;;;;82.13;38.20;;;;;;;;;;5052535;28;20049;-62
2022/03/16 06:18:54;;;;;;;87.43;37.40;;;;;;;;;;5052484;28;20098;-62
2022/03/16 06:21:20;;;;;;;75.55;38.20;;;;;;;;;;5052235;28;20041;-65
2022/03/16 06:23:47;;;;;;;141.65;40.47;;;;;;;;;;5052247;28;20555;-64
2022/03/16 06:26:13;;;;;;;81.90;37.78;;;;;;;;;;5052177;28;20049;-64
2022/03/16 06:28:40;;;;;;;84.22;38.15;;;;;;;;;;5052068;28;20518;-64
2022/03/16 06:31:06;;;;;;;111.50;40.42;;;;;;;;;;5050805;28;20087;-64
2022/03/16 06:33:33;;;;;;;97.10;39.95;;;;;;;;;;5051993;28;20041;-64
2022/03/16 06:36:00;;;;;;;89.43;39.42;;;;;;;;;;5052001;28;20049;-64
2022/03/16 06:38:26;;;;;;;83.07;39.40;;;;;;;;;;5052000;28;20049;-64
2022/03/16 06:40:53;;;;;;;91.47;39.03;;;;;;;;;;5051919;28;20114;-64
2022/03/16 06:43:21;;;;;;;96.40;39.60;;;;;;;;;;5051881;28;20049;-64
2022/03/16 06:45:47;;;;;;;83.78;39.53;;;;;;;;;;5037440;28;20094;-65
2022/03/16 06:48:14;;;;;;;80.68;40.58;;;;;;;;;;5051895;28;20072;-64
2022/03/16 06:50:40;;;;;;;90.30;39.08;;;;;;;;;;5051758;28;20098;-65
2022/03/16 06:53:06;;;;;;;98.63;37.72;;;;;;;;;;5051560;28;20056;-65
2022/03/16 06:55:33;;;;;;;103.15;39.22;;;;;;;;;;5051716;28;20488;-65
2022/03/16 06:57:59;;;;;;;90.82;40.70;;;;;;;;;;5043839;28;20038;-65
2022/03/16 07:00:26;;;;;;;78.57;39.47;;;;;;;;;;5045480;28;20057;-66
2022/03/16 07:03:00;;;;;;;78.05;39.03;;;;;;;;;;5051885;28;20053;-66
2022/03/16 07:05:29;;;;;;;112.25;40.03;;;;;;;;;;5051609;28;20052;-65
2022/03/16 07:07:56;;;;;;;103.05;39.58;;;;;;;;;;5051520;28;20048;-65
2022/03/16 07:10:23;;;;;;;87.32;39.13;;;;;;;;;;5051710;28;20045;-66
2022/03/16 07:12:49;;;;;;;84.95;39.17;;;;;;;;;;5042705;28;20095;-65
2022/03/16 07:15:16;;;;;;;89.40;40.03;;;;;;;;;;5043129;28;20127;-65
2022/03/16 07:17:42;;;;;;;91.15;39.25;;;;;;;;;;5044314;28;20397;-66
2022/03/16 07:20:09;;;;;;;81.97;38.78;;;;;;;;;;5030374;28;20132;-66
2022/03/16 07:22:36;;;;;;;101.75;41.15;;;;;;;;;;5031545;28;20076;-66
2022/03/16 07:25:19;;;;;;;82.13;39.65;;;;;;;;;;5030954;28;20053;-65
2022/03/16 07:27:47;;;;;;;104.35;42.42;;;;;;;;;;5041466;28;20045;-63
2022/03/16 07:30:13;;;;;;;103.93;39.95;;;;;;;;;;5051351;28;20045;-63
2022/03/16 07:32:40;;;;;;;85.55;39.88;;;;;;;;;;5041213;28;20069;-63
2022/03/16 07:35:07;;;;;;;87.30;40.65;;;;;;;;;;5031088;28;20107;-63
2022/03/16 07:37:34;;;;;;;79.63;39.97;;;;;;;;;;5031213;28;20460;-63
2022/03/16 07:40:01;;;;;;;80.55;40.13;;;;;;;;;;5048510;28;20098;-63
2022/03/16 07:42:33;;;;;;;84.68;39.58;;;;;;;;;;5051532;28;20072;-62
2022/03/16 07:45:00;;;;;;;87.03;38.47;;;;;;;;;;5044237;28;20053;-63
2022/03/16 07:47:26;;;;;;;105.97;39.78;;;;;;;;;;5044736;28;20045;-62
2022/03/16 07:50:04;;;;;;;93.28;38.78;;;;;;;;;;5050050;28;20095;-62
2022/03/16 07:52:31;;;;;;;118.25;39.13;;;;;;;;;;5051075;28;20436;-62
2022/03/16 07:54:58;;;;;;;;;;;;;;;;;;5051377;28;20045;-63
2022/03/16 07:57:25;;;;;;;89.28;38.92;;;;;;;;;;5053593;28;19975;-62
2022/03/16 07:59:52;;;;;;;88.80;39.25;;;;;;;;;;5054891;28;20053;-65
2022/03/16 08:02:18;;;;;;;90.07;40.20;;;;;;;;;;5055358;28;20103;-65
2022/03/16 08:04:45;;;;;;;99.07;38.72;;;;;;;;;;5054823;28;20530;-65
2022/03/16 08:07:11;;;;;;;99.18;38.95;;;;;;;;;;5054696;28;20102;-65
2022/03/16 08:09:38;;;;;;;106.53;40.80;;;;;;;;;;5055009;28;20082;-65
2022/03/16 08:12:05;;;;;;;97.90;40.55;;;;;;;;;;5054324;28;20045;-65
2022/03/16 08:14:31;;;;;;;124.35;41.65;;;;;;;;;;5055012;28;20049;-65
2022/03/16 08:16:58;;;;;;;95.28;39.10;;;;;;;;;;5054556;28;20132;-65
2022/03/16 08:19:25;;;;;;;102.38;39.92;;;;;;;;;;5054622;28;20049;-65
2022/03/16 08:21:51;;;;;;;87.35;38.10;;;;;;;;;;5054675;28;20123;-65
2022/03/16 08:24:18;;;;;;;127.22;42.08;;;;;;;;;;5054660;28;20049;-65
2022/03/16 08:26:55;;;;;;;96.00;39.35;;;;;;;;;;5054566;28;20045;-65
2022/03/16 08:29:21;;;;;;;105.15;38.03;;;;;;;;;;5054184;28;20516;-65
2022/03/16 08:31:48;;;;;;;93.55;40.67;;;;;;;;;;5054550;28;20094;-65
2022/03/16 08:34:14;;;;;;;86.75;39.75;;;;;;;;;;5054650;28;20052;-65
2022/03/16 08:36:42;;;;;;;92.88;40.53;;;;;;;;;;5054633;28;20049;-65
2022/03/16 08:39:08;;;;;;;94.25;38.55;;;;;;;;;;5054335;28;20049;-65
2022/03/16 08:41:35;;;;;;;123.70;39.25;;;;;;;;;;5054525;28;20148;-65
2022/03/16 08:44:02;;;;;;;100.63;38.83;;;;;;;;;;5054173;28;20049;-65
2022/03/16 08:46:31;;;;;;;101.60;40.80;;;;;;;;;;5054360;28;20102;-65
2022/03/16 08:48:58;;;;;;;96.45;37.83;;;;;;;;;;5054360;28;20444;-65
2022/03/16 08:51:24;;;;;;;97.25;41.10;;;;;;;;;;5054351;28;20049;-65
2022/03/16 08:53:50;;;;;;;96.43;38.35;;;;;;;;;;5053854;28;20049;-65
2022/03/16 08:56:17;;;;;;;109.53;38.80;;;;;;;;;;5053879;28;20087;-65
2022/03/16 08:58:44;;;;;;;94.88;40.85;;;;;;;;;;5053813;28;20041;-65
2022/03/16 09:01:10;;;;;;;94.22;38.20;;;;;;;;;;5053762;28;20132;-62
2022/03/16 09:03:38;;;;;;;114.03;41.67;;;;;;;;;;5053993;28;20132;-65
2022/03/16 09:06:04;;;;;;;97.55;40.10;;;;;;;;;;5053653;28;20055;-65
2022/03/16 09:08:31;;;;;;;100.13;39.45;;;;;;;;;;5052995;28;20061;-62
2022/03/16 09:10:58;;;;;;;123.93;39.30;;;;;;;;;;5054004;28;20091;-62
2022/03/16 09:13:24;;;;;;;91.93;39.92;;;;;;;;;;5053851;28;20308;-62
2022/03/16 09:15:59;;;;;;;100.80;38.22;;;;;;;;;;5053739;28;20099;-63
2022/03/16 09:18:26;;;;;;;116.28;39.08;;;;;;;;;;5054052;28;20094;-62
2022/03/16 09:20:56;;;;;;;90.93;38.45;;;;;;;;;;5053644;28;20080;-63
2022/03/16 09:23:22;;;;;;;92.43;37.97;;;;;;;;;;5053407;28;20490;-62
2022/03/16 09:25:49;;;;;;;108.50;39.42;;;;;;;;;;5053705;28;20103;-62
2022/03/16 09:28:15;;;;;;;96.65;37.08;;;;;;;;;;5053474;28;20102;-62
2022/03/16 09:30:42;;;;;;;81.10;37.28;;;;;;;;;;5053586;28;20045;-63
2022/03/16 09:33:09;;;;;;;84.88;37.85;;;;;;;;;;5053399;28;20045;-62
2022/03/16 09:35:36;;;;;;;84.15;35.08;;;;;;;;;;5053258;28;20049;-62
2022/03/16 09:38:02;;;;;;;71.10;35.05;;;;;;;;;;5053170;28;20045;-62
2022/03/16 09:40:29;;;;;;;68.68;35.03;;;;;;;;;;5053321;28;20049;-62
2022/03/16 09:42:57;;;;;;;69.45;33.97;;;;;;;;;;5053292;28;20052;-63
2022/03/16 09:45:27;;;;;;;68.53;34.08;;;;;;;;;;5053190;28;20492;-63
2022/03/16 09:47:53;;;;;;;67.47;33.80;;;;;;;;;;5052951;28;20554;-62
2022/03/16 09:50:20;;;;;;;61.88;32.38;;;;;;;;;;5052840;28;20053;-63
2022/03/16 09:52:47;;;;;;;61.47;31.83;;;;;;;;;;5052842;28;20068;-62
2022/03/16 09:55:14;;;;;;;59.95;33.17;;;;;;;;;;5053103;28;20061;-63
2022/03/16 09:57:41;;;;;;;61.75;32.95;;;;;;;;;;5052958;28;20098;-65
2022/03/16 10:00:11;;;;;;;61.33;31.13;;;;;;;;;;5052767;28;20102;-65
2022/03/16 10:02:38;;;;;;;58.45;29.83;;;;;;;;;;5053175;28;20095;-65
2022/03/16 10:05:07;;;;;;;59.83;31.05;;;;;;;;;;5052711;28;20049;-65
2022/03/16 10:07:36;;;;;;;53.83;31.33;;;;;;;;;;5052287;28;20057;-65
2022/03/16 10:15:36;;;;;;;49.47;28.40;;;;;;;;;;5052683;28;20045;-65
2022/03/16 10:18:04;;;;;;;;;;;;;;;;;;5052745;28;20111;-65
2022/03/16 10:20:31;;;;;;;48.42;27.98;;;;;;;;;;5051841;28;19921;-65
2022/03/16 10:23:02;;;;;;;43.15;26.17;;;;;;;;;;5052588;28;20126;-65
2022/03/16 10:25:36;;;;;;;43.97;27.52;;;;;;;;;;5052573;28;20440;-65
2022/03/16 10:28:10;;;;;;;40.35;26.30;;;;;;;;;;5052445;28;20103;-65
2022/03/16 10:30:38;;;;;;;37.70;23.38;;;;;;;;;;5052062;28;20442;-65
2022/03/16 10:33:05;;;;;;;34.08;22.58;;;;;;;;;;5052322;28;20099;-65
2022/03/16 10:35:33;;;;;;;33.30;22.73;;;;;;;;;;5052401;28;20037;-65
2022/03/16 10:38:07;;;;;;;34.83;21.65;;;;;;;;;;5052223;28;20052;-65
2022/03/16 10:40:34;;;;;;;34.10;22.55;;;;;;;;;;5051938;28;20045;-65
2022/03/16 10:48:55;;;;;;;33.13;20.48;;;;;;;;;;5052000;28;20048;-65
2022/03/16 10:51:22;;;;;;;31.05;20.85;;;;;;;;;;5051752;28;20626;-65
2022/03/16 10:54:02;;;;;;;31.20;20.13;;;;;;;;;;5052063;28;20127;-65
2022/03/16 10:56:30;;;;;;;28.75;19.42;;;;;;;;;;5051756;28;20076;-66
2022/03/16 10:58:57;;;;;;;24.15;17.77;;;;;;;;;;5051680;28;20489;-65
2022/03/16 11:01:25;;;;;;;21.58;17.67;;;;;;;;;;5051967;28;20102;-65
2022/03/16 11:03:55;;;;;;;22.27;17.92;;;;;;;;;;5051686;28;20052;-66
2022/03/16 11:06:21;;;;;;;25.33;17.42;;;;;;;;;;5051713;28;20130;-66
2022/03/16 11:08:54;;;;;;;23.88;17.23;;;;;;;;;;5051567;28;20057;-66
2022/03/16 11:14:08;;;;;;;20.63;15.55;;;;;;;;;;5051858;28;20102;-66
2022/03/16 11:16:34;;;;;;;20.90;15.55;;;;;;;;;;5052049;28;20045;-66
2022/03/16 11:19:03;;;;;;;18.67;14.30;;;;;;;;;;5051508;28;20566;-66
2022/03/16 11:22:01;;;;;;;17.92;14.57;;;;;;;;;;5051710;28;20459;-66
2022/03/16 11:24:32;;;;;;;18.13;14.23;;;;;;;;;;5050085;28;20049;-66
2022/03/16 11:27:10;;;;;;;18.42;14.13;;;;;;;;;;5051398;28;20063;-66
2022/03/16 11:29:49;;;;;;;18.80;13.95;;;;;;;;;;5051747;28;20056;-66
2022/03/16 11:32:17;;;;;;;22.20;15.63;;;;;;;;;;5055468;28;20041;-66
2022/03/16 11:34:58;;;;;;;19.65;14.88;;;;;;;;;;5055423;28;20493;-66
2022/03/16 11:37:38;;;;;;;19.15;14.32;;;;;;;;;;5055627;28;20053;-66
2022/03/16 11:40:05;;;;;;;17.50;13.52;;;;;;;;;;5055387;28;20056;-66
2022/03/16 11:42:32;;;;;;;18.67;13.82;;;;;;;;;;5055567;28;20049;-66
2022/03/16 11:45:19;;;;;;;20.10;14.68;;;;;;;;;;5055610;28;20118;-66
2022/03/16 11:47:46;;;;;;;19.88;15.23;;;;;;;;;;5055279;28;20053;-66
2022/03/16 11:50:14;;;;;;;21.90;14.60;;;;;;;;;;5055489;28;20115;-66
2022/03/16 11:52:59;;;;;;;18.58;13.88;;;;;;;;;;5055349;28;20443;-66
2022/03/16 11:55:36;;;;;;;21.35;14.68;;;;;;;;;;5055140;28;20045;-66
2022/03/16 11:58:14;;;;;;;19.47;13.60;;;;;;;;;;5055403;28;20099;-66
2022/03/16 12:00:41;;;;;;;16.60;12.70;;;;;;;;;;5055288;28;20049;-66
2022/03/16 12:03:07;;;;;;;18.02;12.65;;;;;;;;;;5054915;28;20053;-66
2022/03/16 12:05:54;;;;;;;14.00;11.07;;;;;;;;;;5054960;28;20053;-66
2022/03/16 12:08:24;;;;;;;13.27;10.05;;;;;;;;;;5054744;28;20060;-66
2022/03/16 12:12:50;;;;;;;11.85;9.95;;;;;;;;;;5054926;28;20045;-66
2022/03/16 12:13:47;;;;;;;14.15;10.98;;;;;;;;;;5054826;28;20049;-66
2022/03/16 12:16:23;;;;;;;15.20;11.30;;;;;;;;;;5054701;28;20045;-66
2022/03/16 12:18:49;;;;;;;12.02;10.70;;;;;;;;;;5054754;28;20527;-66
2022/03/16 12:21:26;;;;;;;10.60;9.05;;;;;;;;;;5054873;28;20053;-66
2022/03/16 12:23:59;;;;;;;9.65;7.82;;;;;;;;;;5054856;28;20455;-66
2022/03/16 12:26:27;;;;;;;8.60;7.78;;;;;;;;;;5054840;28;20099;-66
2022/03/16 12:29:07;;;;;;;7.85;7.05;;;;;;;;;;5054382;28;20550;-66
2022/03/16 12:31:34;;;;;;;8.20;7.32;;;;;;;;;;5054363;28;20045;-66
2022/03/16 12:34:01;;;;;;;8.75;7.47;;;;;;;;;;5054361;28;20555;-66
2022/03/16 12:36:32;;;;;;;7.50;6.80;;;;;;;;;;5054460;28;20048;-66
2022/03/16 12:39:00;;;;;;;7.07;6.38;;;;;;;;;;5054583;28;20049;-66
2022/03/16 12:44:12;;;;;;;7.22;6.53;;;;;;;;;;5053967;28;20045;-67
2022/03/16 12:47:02;;;;;;;7.68;6.88;;;;;;;;;;5054524;28;20107;-66
2022/03/16 12:49:30;;;;;;;7.40;6.70;;;;;;;;;;5054036;28;20049;-66
2022/03/16 12:51:59;;;;;;;;;;;;;;;;;;5054594;28;20052;-66
2022/03/16 12:54:36;;;;;;;7.55;6.40;;;;;;;;;;5054226;28;19924;-66
2022/03/16 12:57:06;;;;;;;7.67;6.87;;;;;;;;;;5054292;28;20110;-66
2022/03/16 12:59:34;;;;;;;7.47;6.78;;;;;;;;;;5054011;28;20049;-66
2022/03/16 13:02:04;;;;;;;6.75;6.05;;;;;;;;;;5054215;28;20076;-66
2022/03/16 13:04:31;;;;;;;6.05;5.45;;;;;;;;;;5054063;28;20057;-66
2022/03/16 13:06:58;;;;;;;6.18;5.57;;;;;;;;;;5053766;28;20497;-67
2022/03/16 13:09:28;;;;;;;8.37;6.07;;;;;;;;;;5053609;28;20455;-66
2022/03/16 13:12:02;;;;;;;6.72;5.88;;;;;;;;;;5053741;28;20467;-66
2022/03/16 13:14:33;;;;;;;7.25;6.30;;;;;;;;;;5053552;28;20091;-66
2022/03/16 13:17:00;;;;;;;8.10;6.95;;;;;;;;;;5053636;28;20059;-66
2022/03/16 13:19:28;;;;;;;8.57;7.38;;;;;;;;;;5053664;28;20131;-66
2022/03/16 13:22:05;;;;;;;9.52;7.57;;;;;;;;;;5053803;28;20106;-66
2022/03/16 13:24:38;;;;;;;9.65;8.20;;;;;;;;;;5053441;28;20053;-66
2022/03/16 13:27:06;;;;;;;10.23;8.02;;;;;;;;;;5053362;28;20501;-66
2022/03/16 13:29:33;;;;;;;9.52;7.85;;;;;;;;;;5053347;28;20114;-66
2022/03/16 13:32:01;;;;;;;9.65;8.10;;;;;;;;;;5053470;28;20045;-66
2022/03/16 13:34:27;;;;;;;9.00;7.00;;;;;;;;;;5053606;28;20048;-66
2022/03/16 13:36:54;;;;;;;11.90;9.10;;;;;;;;;;5053209;28;20048;-66
2022/03/16 13:39:25;;;;;;;12.63;9.43;;;;;;;;;;5053443;28;20152;-66
2022/03/16 13:42:15;;;;;;;13.73;10.13;;;;;;;;;;5052998;28;20555;-66
2022/03/16 13:44:41;;;;;;;15.13;12.00;;;;;;;;;;5053303;28;20386;-66
2022/03/16 13:47:17;;;;;;;14.75;11.43;;;;;;;;;;5053212;28;20412;-66
2022/03/16 13:49:44;;;;;;;16.67;11.52;;;;;;;;;;5053316;28;20052;-66
2022/03/16 13:52:13;;;;;;;19.90;14.32;;;;;;;;;;5052706;28;20544;-66
2022/03/16 13:54:41;;;;;;;17.73;14.50;;;;;;;;;;5053358;28;20102;-66
2022/03/16 13:57:07;;;;;;;19.35;13.90;;;;;;;;;;5052869;28;20064;-67
2022/03/16 13:59:34;;;;;;;19.92;13.82;;;;;;;;;;5052726;28;20087;-67
2022/03/16 14:02:22;;;;;;;21.02;15.05;;;;;;;;;;5052930;28;20135;-67
2022/03/16 14:04:57;;;;;;;19.33;14.80;;;;;;;;;;5052633;28;20053;-66
2022/03/16 14:07:26;;;;;;;22.10;15.15;;;;;;;;;;5052571;28;20183;-67
2022/03/16 14:09:54;;;;;;;23.90;15.18;;;;;;;;;;5052957;28;20045;-66
2022/03/16 14:12:22;;;;;;;21.88;14.80;;;;;;;;;;5052783;28;20115;-66
2022/03/16 14:14:49;;;;;;;18.40;13.88;;;;;;;;;;5052777;28;20037;-67
2022/03/16 14:17:16;;;;;;;19.73;13.52;;;;;;;;;;5052494;28;20048;-67
2022/03/16 14:19:45;;;;;;;16.88;12.52;;;;;;;;;;5052363;28;20041;-66
2022/03/16 14:22:15;;;;;;;16.08;11.55;;;;;;;;;;5052550;28;20106;-66
2022/03/16 14:24:42;;;;;;;17.15;12.82;;;;;;;;;;5052251;28;20057;-66
2022/03/16 14:27:26;;;;;;;18.70;12.73;;;;;;;;;;5052543;28;20099;-66
2022/03/16 14:29:52;;;;;;;18.38;12.15;;;;;;;;;;5052234;28;20056;-66
2022/03/16 14:32:20;;;;;;;17.80;12.90;;;;;;;;;;5052039;28;20070;-66
2022/03/16 14:34:52;;;;;;;25.73;15.82;;;;;;;;;;5052357;28;20045;-66
2022/03/16 14:37:19;;;;;;;26.77;16.67;;;;;;;;;;5052037;28;20048;-66
2022/03/16 14:39:45;;;;;;;26.60;14.57;;;;;;;;;;5052328;28;20048;-66
2022/03/16 14:42:11;;;;;;;22.63;14.55;;;;;;;;;;5051842;28;20099;-66